Time;durP1;ratioP1;P1;durP2;ratioP2;P2;SDS_P1;SDS_P2;PMS_P1;PMS_P2;Temp;Humidity;BMP_temperature;BMP_pressure;BME280_temperature;BME280_humidity;BME280_pressure;Samples;Min_cycle;Max_cycle;Signal;HPM_P1;HPM_P2
2024/02/08 00:00:54;;;;;;;;;;;;;;;;;;4980223;28;89522;-62
2024/02/08 00:03:19;;;;;;;;;;;;;;;;;;4982173;28;89981;-61
2024/02/08 00:05:45;;;;;;;;;;;;;;;;;;4973455;28;89375;-62
2024/02/08 00:08:11;;;;;;;;;;;;;;;;;;4986453;28;89481;-62
2024/02/08 00:10:37;;;;;;;;;;;;;;;;;;4981231;28;89040;-61
2024/02/08 00:13:02;;;;;;;;;;;;;;;;;;4980905;28;89490;-63
2024/02/08 00:15:29;;;;;;;;;;;;;;;;;;4980494;28;89119;-62
2024/02/08 00:17:55;;;;;;;;;;;;;;;;;;4979948;28;89720;-61
2024/02/08 00:20:20;;;;;;;;;;;;;;;;;;4977950;28;90353;-62
2024/02/08 00:22:46;;;;;;;;;;;;;;;;;;4979413;28;89705;-61
2024/02/08 00:25:12;;;;;;;;;;;;;;;;;;4988016;28;90666;-60
2024/02/08 00:27:37;;;;;;;;;;;;;;;;;;4979574;28;89391;-61
2024/02/08 00:30:02;;;;;;;;;;;;;;;;;;4995306;28;89524;-62
2024/02/08 00:32:28;;;;;;;;;;;;;;;;;;4985684;28;89545;-62
2024/02/08 00:34:53;;;;;;;;;;;;;;;;;;4976751;28;89033;-62
2024/02/08 00:37:18;;;;;;;;;;;;;;;;;;4974513;28;90048;-61
2024/02/08 00:39:44;;;;;;;;;;;;;;;;;;4977321;28;90271;-61
2024/02/08 00:42:11;;;;;;;;;;;;;;;;;;4975823;28;90133;-61
2024/02/08 00:44:36;;;;;;;;;;;;;;;;;;4977144;28;89638;-61
2024/02/08 00:47:01;;;;;;;;;;;;;;;;;;4977762;28;89089;-62
2024/02/08 00:49:27;;;;;;;;;;;;;;;;;;4978001;28;89088;-61
2024/02/08 00:51:52;;;;;;;;;;;;;;;;;;4977806;28;89420;-62
2024/02/08 00:54:17;;;;;;;;;;;;;;;;;;4982139;28;90100;-63
2024/02/08 00:56:43;;;;;;;;;;;;;;;;;;4980964;28;89297;-62
2024/02/08 00:59:09;;;;;;;;;;;;;;;;;;4986344;28;89314;-62
2024/02/08 01:01:34;;;;;;;;;;;;;;;;;;4981044;28;90288;-62
2024/02/08 01:03:59;;;;;;;;;;;;;;;;;;4979291;28;91195;-61
2024/02/08 01:06:25;;;;;;;;;;;;;;;;;;4982458;28;89629;-60
2024/02/08 01:08:54;;;;;;;;;;;;;;;;;;4981159;28;90215;-63
2024/02/08 01:11:19;;;;;;;;;;;;;;;;;;4977895;28;91708;-61
2024/02/08 01:13:44;;;;;;;;;;;;;;;;;;4976858;28;91018;-62
2024/02/08 01:16:11;;;;;;;;;;;;;;;;;;4981216;28;89749;-62
2024/02/08 01:18:41;;;;;;;;;;;;;;;;;;4973905;28;89537;-62
2024/02/08 01:21:06;;;;;;;;;;;;;;;;;;4972447;28;89603;-62
2024/02/08 01:23:32;;;;;;;;;;;;;;;;;;4987553;28;89727;-62
2024/02/08 01:25:58;;;;;;;;;;;;;;;;;;4987500;28;89777;-62
2024/02/08 01:28:23;;;;;;;;;;;;;;;;;;4987371;28;89068;-62
2024/02/08 01:30:48;;;;;;;;;;;;;;;;;;4988090;28;89615;-61
2024/02/08 01:33:13;;;;;;;;;;;;;;;;;;5007088;28;89228;-62
2024/02/08 01:35:39;;;;;;;;;;;;;;;;;;5008752;28;89523;-62
2024/02/08 01:38:05;;;;;;;;;;;;;;;;;;5011202;28;90131;-62
2024/02/08 01:40:30;;;;;;;;;;;;;;;;;;5007618;28;89472;-61
2024/02/08 01:42:57;;;;;;;;;;;;;;;;;;5003667;28;89467;-62
2024/02/08 01:45:29;;;;;;;;;;;;;;;;;;4987694;28;90235;-63
2024/02/08 01:47:55;;;;;;;;;;;;;;;;;;4985534;28;89499;-61
2024/02/08 01:50:20;;;;;;;;;;;;;;;;;;4988886;28;89550;-61
2024/02/08 01:52:50;;;;;;;;;;;;;;;;;;4987116;28;89670;-61
2024/02/08 01:55:16;;;;;;;;;;;;;;;;;;4988397;28;89541;-62
2024/02/08 01:57:41;;;;;;;;;;;;;;;;;;4988592;28;90802;-62
2024/02/08 02:00:07;;;;;;;;;;;;;;;;;;4991020;28;90848;-62
2024/02/08 02:02:36;;;;;;;;;;;;;;;;;;4988118;28;90620;-62
2024/02/08 02:05:01;;;;;;;;;;;;;;;;;;5003382;28;90052;-61
2024/02/08 02:07:28;;;;;;;;;;;;;;;;;;4988238;28;89789;-61
2024/02/08 02:09:53;;;;;;;;;;;;;;;;;;4988299;28;89483;-60
2024/02/08 02:12:22;;;;;;;;;;;;;;;;;;4988500;28;89278;-62
2024/02/08 02:14:48;;;;;;;;;;;;;;;;;;4989012;28;89453;-61
2024/02/08 02:17:19;;;;;;;;;;;;;;;;;;4988355;28;89635;-60
2024/02/08 02:19:46;;;;;;;;;;;;;;;;;;4990436;28;91127;-60
2024/02/08 02:22:12;;;;;;;;;;;;;;;;;;4988526;28;89558;-60
2024/02/08 02:24:40;;;;;;;;;;;;;;;;;;4988598;28;89499;-60
2024/02/08 02:27:05;;;;;;;;;;;;;;;;;;4988106;28;89054;-61
2024/02/08 02:29:31;;;;;;;;;;;;;;;;;;4988295;28;89616;-60
2024/02/08 02:31:59;;;;;;;;;;;;;;;;;;4996208;28;89358;-60
2024/02/08 02:34:26;;;;;;;;;;;;;;;;;;5008316;28;89326;-62
2024/02/08 02:36:58;;;;;;;;;;;;;;;;;;5008171;28;90587;-62
2024/02/08 02:39:25;;;;;;;;;;;;;;;;;;5007845;28;88914;-61
2024/02/08 02:41:51;;;;;;;;;;;;;;;;;;5011057;28;89256;-62
2024/02/08 02:44:16;;;;;;;;;;;;;;;;;;5007430;28;89338;-61
2024/02/08 02:46:42;;;;;;;;;;;;;;;;;;5007698;28;89564;-62
2024/02/08 02:49:09;;;;;;;;;;;;;;;;;;5007952;28;92154;-61
2024/02/08 02:51:36;;;;;;;;;;;;;;;;;;5007558;28;90272;-61
2024/02/08 02:54:01;;;;;;;;;;;;;;;;;;5007972;28;89158;-61
2024/02/08 02:56:28;;;;;;;;;;;;;;;;;;5007344;28;89534;-62
2024/02/08 02:58:53;;;;;;;;;;;;;;;;;;5007665;28;90193;-61
2024/02/08 03:01:19;;;;;;;;;;;;;;;;;;5003455;28;89037;-62
2024/02/08 03:03:47;;;;;;;;;;;;;;;;;;4991028;28;90730;-63
2024/02/08 03:06:15;;;;;;;;;;;;;;;;;;4991198;28;89598;-63
2024/02/08 03:08:44;;;;;;;;;;;;;;;;;;4991080;28;90723;-61
2024/02/08 03:11:11;;;;;;;;;;;;;;;;;;4989436;28;89742;-61
2024/02/08 03:13:45;;;;;;;;;;;;;;;;;;4988190;28;89273;-61
2024/02/08 03:16:14;;;;;;;;;;;;;;;;;;4988614;28;90841;-63
2024/02/08 03:18:43;;;;;;;;;;;;;;;;;;4989010;28;89392;-62
2024/02/08 03:21:17;;;;;;;;;;;;;;;;;;4987765;28;89819;-61
2024/02/08 03:23:45;;;;;;;;;;;;;;;;;;4989306;28;91013;-62
2024/02/08 03:26:11;;;;;;;;;;;;;;;;;;4991862;28;90428;-61
2024/02/08 03:28:36;;;;;;;;;;;;;;;;;;4988722;28;90731;-61
2024/02/08 03:31:02;;;;;;;;;;;;;;;;;;4989700;28;89557;-62
2024/02/08 03:33:27;;;;;;;;;;;;;;;;;;5007399;28;89041;-62
2024/02/08 03:35:53;;;;;;;;;;;;;;;;;;5008482;28;89501;-62
2024/02/08 03:38:21;;;;;;;;;;;;;;;;;;5008023;28;90599;-62
2024/02/08 03:40:46;;;;;;;;;;;;;;;;;;5008351;28;89450;-62
2024/02/08 03:43:15;;;;;;;;;;;;;;;;;;5008454;28;89476;-62
2024/02/08 03:45:40;;;;;;;;;;;;;;;;;;5008060;28;89259;-62
2024/02/08 03:48:06;;;;;;;;;;;;;;;;;;5011394;28;89121;-62
2024/02/08 03:50:35;;;;;;;;;;;;;;;;;;5007331;28;90312;-61
2024/02/08 03:53:00;;;;;;;;;;;;;;;;;;4981849;28;89577;-61
2024/02/08 03:55:26;;;;;;;;;;;;;;;;;;4968543;28;89584;-61
2024/02/08 03:58:06;;;;;;;;;;;;;;;;;;4968211;28;91035;-62
2024/02/08 04:00:33;;;;;;;;;;;;;;;;;;4968869;28;90172;-62
2024/02/08 04:02:59;;;;;;;;;;;;;;;;;;4969011;28;90668;-62
2024/02/08 04:05:37;;;;;;;;;;;;;;;;;;4968926;28;89943;-63
2024/02/08 04:08:22;;;;;;;;;;;;;;;;;;4968743;28;89279;-62
2024/02/08 04:54:13;;;;;;;;;;;;;;;;;;5007151;28;89246;-62
2024/02/08 04:56:38;;;;;;;;;;;;;;;;;;5010791;28;89192;-60
2024/02/08 04:59:06;;;;;;;;;;;;;;;;;;5007499;28;90395;-61
2024/02/08 05:01:36;;;;;;;;;;;;;;;;;;5007437;28;89181;-62
2024/02/08 05:04:02;;;;;;;;;;;;;;;;;;5004672;28;89822;-61
2024/02/08 05:06:27;;;;;;;;;;;;;;;;;;4988012;28;89821;-61
2024/02/08 05:08:57;;;;;;;;;;;;;;;;;;4987312;28;89253;-62
2024/02/08 05:11:23;;;;;;;;;;;;;;;;;;4987436;28;89277;-62
2024/02/08 05:13:50;;;;;;;;;;;;;;;;;;4980493;28;89582;-61
2024/02/08 05:16:16;;;;;;;;;;;;;;;;;;4977777;28;90746;-61
2024/02/08 05:18:42;;;;;;;;;;;;;;;;;;4979822;28;89006;-62
2024/02/08 05:21:08;;;;;;;;;;;;;;;;;;4977830;28;89616;-62
2024/02/08 05:23:38;;;;;;;;;;;;;;;;;;4968571;28;88998;-62
2024/02/08 05:26:05;;;;;;;;;;;;;;;;;;4975370;28;90696;-62
2024/02/08 05:28:30;;;;;;;;;;;;;;;;;;4976386;28;90329;-62
2024/02/08 05:30:56;;;;;;;;;;;;;;;;;;4976011;28;89089;-62
2024/02/08 05:33:23;;;;;;;;;;;;;;;;;;4994891;28;89604;-61
2024/02/08 05:35:51;;;;;;;;;;;;;;;;;;4977763;28;90387;-63
2024/02/08 05:38:16;;;;;;;;;;;;;;;;;;4976641;28;89053;-62
2024/02/08 05:40:43;;;;;;;;;;;;;;;;;;4978674;28;89481;-62
2024/02/08 05:43:09;;;;;;;;;;;;;;;;;;4968404;28;89052;-62
2024/02/08 05:45:34;;;;;;;;;;;;;;;;;;4977140;28;89510;-62
2024/02/08 05:48:05;;;;;;;;;;;;;;;;;;4975711;28;89834;-62
2024/02/08 05:50:31;;;;;;;;;;;;;;;;;;4976897;28;89395;-62
2024/02/08 05:52:57;;;;;;;;;;;;;;;;;;4976024;28;89731;-62
2024/02/08 05:55:24;;;;;;;;;;;;;;;;;;4976594;28;89478;-60
2024/02/08 05:57:50;;;;;;;;;;;;;;;;;;4975350;28;90092;-62
2024/02/08 06:00:32;;;;;;;;;;;;;;;;;;4975090;28;90741;-62
2024/02/08 06:03:01;;;;;;;;;;;;;;;;;;4981255;28;90540;-63
2024/02/08 06:05:26;;;;;;;;;;;;;;;;;;4975939;28;89890;-62
2024/02/08 06:07:56;;;;;;;;;;;;;;;;;;4975587;28;90259;-62
2024/02/08 06:10:23;;;;;;;;;;;;;;;;;;4977256;28;89914;-62
2024/02/08 06:12:57;;;;;;;;;;;;;;;;;;4974427;28;89841;-62
2024/02/08 06:15:32;;;;;;;;;;;;;;;;;;4970013;28;90213;-62
2024/02/08 06:17:58;;;;;;;;;;;;;;;;;;4974204;28;89753;-62
2024/02/08 06:20:33;;;;;;;;;;;;;;;;;;4975951;28;90409;-62
2024/02/08 06:23:03;;;;;;;;;;;;;;;;;;4977729;28;90302;-62
2024/02/08 06:25:28;;;;;;;;;;;;;;;;;;4982835;28;89278;-62
2024/02/08 06:27:57;;;;;;;;;;;;;;;;;;4974771;28;89071;-62
2024/02/08 06:30:25;;;;;;;;;;;;;;;;;;4977018;28;89032;-62
2024/02/08 06:33:07;;;;;;;;;;;;;;;;;;4978905;28;90705;-62
2024/02/08 06:35:35;;;;;;;;;;;;;;;;;;4975257;28;90276;-60
2024/02/08 06:38:02;;;;;;;;;;;;;;;;;;4975243;28;90094;-63
2024/02/08 07:37:36;;;;;;;;;;;;;;;;;;4980654;28;89461;-66
2024/02/08 07:40:19;;;;;;;;;;;;;;;;;;4976466;28;90304;-61
2024/02/08 07:42:44;;;;;;;;;;;;;;;;;;4979369;28;89379;-65
2024/02/08 07:45:12;;;;;;;;;;;;;;;;;;4976021;28;89602;-62
2024/02/08 07:47:38;;;;;;;;;;;;;;;;;;4974702;28;90272;-64
2024/02/08 07:50:09;;;;;;;;;;;;;;;;;;4975761;28;89509;-63
2024/02/08 07:52:45;;;;;;;;;;;;;;;;;;4993815;28;92769;-63
2024/02/08 07:55:20;;;;;;;;;;;;;;;;;;4974939;28;90299;-64
2024/02/08 07:58:07;;;;;;;;;;;;;;;;;;4981171;28;89130;-63
2024/02/08 08:03:09;;;;;;;;;;;;;;;;;;4977576;28;89603;-63
2024/02/08 08:05:41;;;;;;;;;;;;;;;;;;4977345;28;89660;-63
2024/02/08 08:08:15;;;;;;;;;;;;;;;;;;4983653;28;90579;-64
2024/02/08 08:10:40;;;;;;;;;;;;;;;;;;4975866;28;89469;-61
2024/02/08 08:13:08;;;;;;;;;;;;;;;;;;4983998;28;90751;-61
2024/02/08 08:15:49;;;;;;;;;;;;;;;;;;4981478;28;90981;-62
2024/02/08 08:18:23;;;;;;;;;;;;;;;;;;4983347;28;89640;-62
2024/02/08 08:20:58;;;;;;;;;;;;;;;;;;4980747;28;89537;-64
2024/02/08 08:23:26;;;;;;;;;;;;;;;;;;4982101;28;89233;-63
2024/02/08 08:26:05;;;;;;;;;;;;;;;;;;4985927;28;89804;-63
2024/02/08 08:28:39;;;;;;;;;;;;;;;;;;4978553;28;89327;-64
2024/02/08 08:31:35;;;;;;;;;;;;;;;;;;4979180;28;91231;-64
2024/02/08 08:33:59;;;;;;;;;;;;;;;;;;4974740;28;90544;-64
2024/02/08 08:36:34;;;;;;;;;;;;;;;;;;4980015;28;89480;-61
2024/02/08 08:41:49;;;;;;;;;;;;;;;;;;4979283;28;89340;-62
2024/02/08 08:44:15;;;;;;;;;;;;;;;;;;4970643;28;89708;-61
2024/02/08 08:46:41;;;;;;;;;;;;;;;;;;4978410;28;90993;-61
2024/02/08 08:49:07;;;;;;;;;;;;;;;;;;4978414;28;90596;-61
2024/02/08 08:51:32;;;;;;;;;;;;;;;;;;4979357;28;89885;-61
2024/02/08 08:54:00;;;;;;;;;;;;;;;;;;4977442;28;89670;-63
2024/02/08 08:56:28;;;;;;;;;;;;;;;;;;4977145;28;89455;-63
2024/02/08 08:58:53;;;;;;;;;;;;;;;;;;4976856;28;91267;-64
2024/02/08 09:01:18;;;;;;;;;;;;;;;;;;4976677;28;89627;-64
2024/02/08 09:04:09;;;;;;;;;;;;;;;;;;4979503;28;89218;-64
2024/02/08 09:06:41;;;;;;;;;;;;;;;;;;4975241;28;89102;-63
2024/02/08 09:09:27;;;;;;;;;;;;;;;;;;4976703;28;90148;-63
2024/02/08 09:11:57;;;;;;;;;;;;;;;;;;4981159;28;89650;-63
2024/02/08 09:14:30;;;;;;;;;;;;;;;;;;4980633;28;89668;-63
2024/02/08 09:17:04;;;;;;;;;;;;;;;;;;4975787;28;90149;-62
2024/02/08 09:19:31;;;;;;;;;;;;;;;;;;4980886;28;89586;-63
2024/02/08 09:22:01;;;;;;;;;;;;;;;;;;4981429;28;91020;-63
2024/02/08 09:24:26;;;;;;;;;;;;;;;;;;4983071;28;89484;-61
2024/02/08 09:27:15;;;;;;;;;;;;;;;;;;4982542;28;90571;-63
2024/02/08 09:29:42;;;;;;;;;;;;;;;;;;4984545;28;90219;-64
2024/02/08 09:32:18;;;;;;;;;;;;;;;;;;4980124;28;89908;-63
2024/02/08 09:34:46;;;;;;;;;;;;;;;;;;4983558;28;89997;-63
2024/02/08 09:37:11;;;;;;;;;;;;;;;;;;4979332;28;89211;-64
2024/02/08 09:42:18;;;;;;;;;;;;;;;;;;4971359;28;89276;-61
2024/02/08 09:44:49;;;;;;;;;;;;;;;;;;4978068;28;89516;-61
2024/02/08 09:47:25;;;;;;;;;;;;;;;;;;4978187;28;89327;-67
2024/02/08 09:49:55;;;;;;;;;;;;;;;;;;4973611;28;89554;-63
2024/02/08 09:52:30;;;;;;;;;;;;;;;;;;4974302;28;90060;-64
2024/02/08 09:55:06;;;;;;;;;;;;;;;;;;4976155;28;90701;-63
2024/02/08 09:57:40;;;;;;;;;;;;;;;;;;4979031;28;89088;-63
2024/02/08 10:00:10;;;;;;;;;;;;;;;;;;4979975;28;89573;-63
2024/02/08 10:02:41;;;;;;;;;;;;;;;;;;4974948;28;91002;-63
2024/02/08 10:08:27;;;;;;;;;;;;;;;;;;4982200;28;90107;-63
2024/02/08 10:10:43;;;;;;;;;;;;;;;;;;4981760;28;89476;-63
2024/02/08 10:13:26;;;;;;;;;;;;;;;;;;4981478;28;90283;-64
2024/02/08 10:15:55;;;;;;;;;;;;;;;;;;4982124;28;89545;-62
2024/02/08 10:18:33;;;;;;;;;;;;;;;;;;4978699;28;90293;-65
2024/02/08 10:21:21;;;;;;;;;;;;;;;;;;4983598;28;90392;-64
2024/02/08 10:23:59;;;;;;;;;;;;;;;;;;4982773;28;90903;-62
2024/02/08 10:26:27;;;;;;;;;;;;;;;;;;4978198;28;90584;-61
2024/02/08 10:28:54;;;;;;;;;;;;;;;;;;4980295;28;90095;-62
2024/02/08 10:31:26;;;;;;;;;;;;;;;;;;4983833;28;90757;-61
2024/02/08 10:34:23;;;;;;;;;;;;;;;;;;4980160;28;90546;-64
2024/02/08 10:36:48;;;;;;;;;;;;;;;;;;4981907;28;89105;-63
2024/02/08 10:39:26;;;;;;;;;;;;;;;;;;4982007;28;90245;-64
2024/02/08 10:41:57;;;;;;;;;;;;;;;;;;4979558;28;89586;-64
2024/02/08 10:44:24;;;;;;;;;;;;;;;;;;4967972;28;89537;-64
2024/02/08 10:46:55;;;;;;;;;;;;;;;;;;4976396;28;89476;-65
2024/02/08 10:49:22;;;;;;;;;;;;;;;;;;4980412;28;89776;-63
2024/02/08 10:51:48;;;;;;;;;;;;;;;;;;4982493;28;90692;-62
2024/02/08 10:54:15;;;;;;;;;;;;;;;;;;4989853;28;89722;-61
2024/02/08 10:57:06;;;;;;;;;;;;;;;;;;4976334;28;90560;-63
2024/02/08 10:59:48;;;;;;;;;;;;;;;;;;4981337;28;89594;-61
2024/02/08 11:02:35;;;;;;;;;;;;;;;;;;4970488;28;89550;-63
2024/02/08 11:05:20;;;;;;;;;;;;;;;;;;4977312;28;89661;-64
2024/02/08 11:07:46;;;;;;;;;;;;;;;;;;4977351;28;90768;-64
2024/02/08 11:10:12;;;;;;;;;;;;;;;;;;4979547;28;89436;-63
2024/02/08 11:12:39;;;;;;;;;;;;;;;;;;4978186;28;91853;-64
2024/02/08 11:15:13;;;;;;;;;;;;;;;;;;4984333;28;89717;-64
2024/02/08 11:17:50;;;;;;;;;;;;;;;;;;4979564;28;89917;-64
2024/02/08 11:20:33;;;;;;;;;;;;;;;;;;4982048;28;89109;-63
2024/02/08 11:23:23;;;;;;;;;;;;;;;;;;4971685;28;90040;-64
2024/02/08 11:25:49;;;;;;;;;;;;;;;;;;4986332;28;90858;-63
2024/02/08 11:28:24;;;;;;;;;;;;;;;;;;4975633;28;90274;-63
2024/02/08 11:30:51;;;;;;;;;;;;;;;;;;4985957;28;91091;-64
2024/02/08 11:33:20;;;;;;;;;;;;;;;;;;4980840;28;90685;-63
2024/02/08 11:35:54;;;;;;;;;;;;;;;;;;4984161;28;89609;-65
2024/02/08 11:38:26;;;;;;;;;;;;;;;;;;4978699;28;90387;-70
2024/02/08 11:40:52;;;;;;;;;;;;;;;;;;4982805;28;90079;-65
2024/02/08 11:43:23;;;;;;;;;;;;;;;;;;4981364;28;89370;-69
2024/02/08 11:45:53;;;;;;;;;;;;;;;;;;4102734;28;10001096;-65
2024/02/08 11:48:28;;;;;;;;;;;;;;;;;;1699751;28;10000484;-64
2024/02/08 11:50:58;;;;;;;;;;;;;;;;;;4105619;28;10000222;-64
2024/02/08 11:53:33;;;;;;;;;;;;;;;;;;4983830;28;91024;-62
2024/02/08 11:56:07;;;;;;;;;;;;;;;;;;4977789;28;89128;-63
2024/02/08 11:58:35;;;;;;;;;;;;;;;;;;4984959;28;90852;-63
2024/02/08 12:01:03;;;;;;;;;;;;;;;;;;4982994;28;89769;-63
2024/02/08 12:03:28;;;;;;;;;;;;;;;;;;4979169;28;89253;-64
2024/02/08 12:05:55;;;;;;;;;;;;;;;;;;4979506;28;89894;-64
2024/02/08 12:08:23;;;;;;;;;;;;;;;;;;4981529;28;89947;-65
2024/02/08 12:10:49;;;;;;;;;;;;;;;;;;4981008;28;90792;-64
2024/02/08 12:13:16;;;;;;;;;;;;;;;;;;4977404;28;90335;-64
2024/02/08 12:15:47;;;;;;;;;;;;;;;;;;4981499;28;90174;-63
2024/02/08 12:18:13;;;;;;;;;;;;;;;;;;4985620;28;89674;-65
2024/02/08 12:20:43;;;;;;;;;;;;;;;;;;4989065;28;89280;-64
2024/02/08 12:23:08;;;;;;;;;;;;;;;;;;4975603;28;89332;-65
2024/02/08 12:25:34;;;;;;;;;;;;;;;;;;4976892;28;89598;-62
2024/02/08 12:28:02;;;;;;;;;;;;;;;;;;4984479;28;90184;-64
2024/02/08 12:30:28;;;;;;;;;;;;;;;;;;4983452;28;89588;-63
2024/02/08 12:32:57;;;;;;;;;;;;;;;;;;4980508;28;89486;-62
2024/02/08 12:35:26;;;;;;;;;;;;;;;;;;4979732;28;89410;-63
2024/02/08 12:37:52;;;;;;;;;;;;;;;;;;4978887;28;89598;-64
2024/02/08 12:40:17;;;;;;;;;;;;;;;;;;4978204;28;89266;-62
2024/02/08 12:42:43;;;;;;;;;;;;;;;;;;4985270;28;89671;-62
2024/02/08 12:45:12;;;;;;;;;;;;;;;;;;4979883;28;89540;-64
2024/02/08 12:47:40;;;;;;;;;;;;;;;;;;4975443;28;90311;-62
2024/02/08 12:50:11;;;;;;;;;;;;;;;;;;4986619;28;89641;-64
2024/02/08 12:52:40;;;;;;;;;;;;;;;;;;4980647;28;89684;-65
2024/02/08 12:55:07;;;;;;;;;;;;;;;;;;4976621;28;89810;-64
2024/02/08 12:57:36;;;;;;;;;;;;;;;;;;4979345;28;89691;-61
2024/02/08 13:00:02;;;;;;;;;;;;;;;;;;4983622;28;89839;-62
2024/02/08 13:02:32;;;;;;;;;;;;;;;;;;4983201;28;90579;-64
2024/02/08 13:05:01;;;;;;;;;;;;;;;;;;4976236;28;90729;-61
2024/02/08 13:07:26;;;;;;;;;;;;;;;;;;4980949;28;90039;-62
2024/02/08 13:09:59;;;;;;;;;;;;;;;;;;4978537;28;90231;-63
2024/02/08 13:12:24;;;;;;;;;;;;;;;;;;4971840;28;89578;-64
2024/02/08 13:14:52;;;;;;;;;;;;;;;;;;4977355;28;89892;-65
2024/02/08 13:17:21;;;;;;;;;;;;;;;;;;4978991;28;89565;-63
2024/02/08 13:19:47;;;;;;;;;;;;;;;;;;4969096;28;89952;-64
2024/02/08 13:22:12;;;;;;;;;;;;;;;;;;4977848;28;89173;-63
2024/02/08 13:24:37;;;;;;;;;;;;;;;;;;4978630;28;89439;-62
2024/02/08 13:27:03;;;;;;;;;;;;;;;;;;4983575;28;90156;-62
2024/02/08 13:29:29;;;;;;;;;;;;;;;;;;4983094;28;89994;-63
2024/02/08 13:31:54;;;;;;;;;;;;;;;;;;4982713;28;90040;-64
2024/02/08 13:34:21;;;;;;;;;;;;;;;;;;4982773;28;89773;-63
2024/02/08 13:36:46;;;;;;;;;;;;;;;;;;4976721;28;90444;-63
2024/02/08 13:39:11;;;;;;;;;;;;;;;;;;4979442;28;90031;-65
2024/02/08 13:41:37;;;;;;;;;;;;;;;;;;4985814;28;89353;-64
2024/02/08 13:44:02;;;;;;;;;;;;;;;;;;4979142;28;89247;-65
2024/02/08 13:46:30;;;;;;;;;;;;;;;;;;4980777;28;89402;-63
2024/02/08 13:48:57;;;;;;;;;;;;;;;;;;4975478;28;89246;-64
2024/02/08 13:51:22;;;;;;;;;;;;;;;;;;4972018;28;90023;-64
2024/02/08 13:53:49;;;;;;;;;;;;;;;;;;4978439;28;91809;-64
2024/02/08 13:56:15;;;;;;;;;;;;;;;;;;4983092;28;89574;-64
2024/02/08 13:58:40;;;;;;;;;;;;;;;;;;4977842;28;89275;-63
2024/02/08 14:01:05;;;;;;;;;;;;;;;;;;4987657;28;89145;-64
2024/02/08 14:03:32;;;;;;;;;;;;;;;;;;4985136;28;89462;-64
2024/02/08 14:05:59;;;;;;;;;;;;;;;;;;4984422;28;90345;-61
2024/02/08 14:08:27;;;;;;;;;;;;;;;;;;4979270;28;89425;-64
2024/02/08 14:10:53;;;;;;;;;;;;;;;;;;4980090;28;90224;-64
2024/02/08 14:13:28;;;;;;;;;;;;;;;;;;4974789;28;89166;-64
2024/02/08 14:15:54;;;;;;;;;;;;;;;;;;4988481;28;89423;-64
2024/02/08 14:18:22;;;;;;;;;;;;;;;;;;4977829;28;90288;-61
2024/02/08 14:20:56;;;;;;;;;;;;;;;;;;4973826;28;89703;-64
2024/02/08 14:23:30;;;;;;;;;;;;;;;;;;4976904;28;89689;-63
2024/02/08 14:28:42;;;;;;;;;;;;;;;;;;4976878;28;89794;-64
2024/02/08 14:31:11;;;;;;;;;;;;;;;;;;4974982;28;90014;-65
2024/02/08 14:33:37;;;;;;;;;;;;;;;;;;4977104;28;90127;-64
2024/02/08 14:36:09;;;;;;;;;;;;;;;;;;4978990;28;89598;-64
2024/02/08 14:38:41;;;;;;;;;;;;;;;;;;4969365;28;90769;-64
2024/02/08 14:41:25;;;;;;;;;;;;;;;;;;4980165;28;89175;-65
2024/02/08 14:43:53;;;;;;;;;;;;;;;;;;4978830;28;91009;-63
2024/02/08 14:46:21;;;;;;;;;;;;;;;;;;4981884;28;90413;-62
2024/02/08 14:48:51;;;;;;;;;;;;;;;;;;4972577;28;89331;-62
2024/02/08 14:53:54;;;;;;;;;;;;;;;;;;4976783;28;89345;-64
2024/02/08 14:56:22;;;;;;;;;;;;;;;;;;4980489;28;89066;-62
2024/02/08 14:59:09;;;;;;;;;;;;;;;;;;4975224;28;90036;-64
2024/02/08 15:01:42;;;;;;;;;;;;;;;;;;4986626;28;90257;-65
2024/02/08 15:04:15;;;;;;;;;;;;;;;;;;4983234;28;91747;-64
2024/02/08 15:06:42;;;;;;;;;;;;;;;;;;4986127;28;90226;-62
2024/02/08 15:12:09;;;;;;;;;;;;;;;;;;4981612;28;89951;-65
2024/02/08 15:14:42;;;;;;;;;;;;;;;;;;4978716;28;89638;-64
2024/02/08 15:17:08;;;;;;;;;;;;;;;;;;4983060;28;89480;-63
2024/02/08 15:19:34;;;;;;;;;;;;;;;;;;4977244;28;89630;-61
2024/02/08 15:22:18;;;;;;;;;;;;;;;;;;4978081;28;89474;-63
2024/02/08 15:24:46;;;;;;;;;;;;;;;;;;4983095;28;89314;-64
2024/02/08 15:27:31;;;;;;;;;;;;;;;;;;4981212;28;89390;-64
2024/02/08 15:30:10;;;;;;;;;;;;;;;;;;4980834;28;90186;-64
2024/02/08 15:32:46;;;;;;;;;;;;;;;;;;4979630;28;90766;-63
2024/02/08 15:35:23;;;;;;;;;;;;;;;;;;4980199;28;89960;-65
2024/02/08 15:38:18;;;;;;;;;;;;;;;;;;4987603;28;89103;-64
2024/02/08 15:40:39;;;;;;;;;;;;;;;;;;4975279;28;91080;-64
2024/02/08 15:43:10;;;;;;;;;;;;;;;;;;4983923;28;90269;-65
2024/02/08 15:45:36;;;;;;;;;;;;;;;;;;4982439;28;89763;-63
2024/02/08 15:48:03;;;;;;;;;;;;;;;;;;4981585;28;89608;-62
2024/02/08 15:50:36;;;;;;;;;;;;;;;;;;4978138;28;89516;-63
2024/02/08 15:53:08;;;;;;;;;;;;;;;;;;4978670;28;89554;-64
2024/02/08 15:55:38;;;;;;;;;;;;;;;;;;4979710;28;90429;-63
2024/02/08 15:58:19;;;;;;;;;;;;;;;;;;4979191;28;89503;-64
2024/02/08 16:03:39;;;;;;;;;;;;;;;;;;4968810;28;89423;-64
2024/02/08 16:06:41;;;;;;;;;;;;;;;;;;4975214;28;89609;-65
2024/02/08 16:08:50;;;;;;;;;;;;;;;;;;4972615;28;90431;-63
2024/02/08 16:11:23;;;;;;;;;;;;;;;;;;4978875;28;90277;-64
2024/02/08 16:14:03;;;;;;;;;;;;;;;;;;4979777;28;89495;-63
2024/02/08 16:16:29;;;;;;;;;;;;;;;;;;4983113;28;90468;-64
2024/02/08 16:19:23;;;;;;;;;;;;;;;;;;4981417;28;88977;-64
2024/02/08 16:21:49;;;;;;;;;;;;;;;;;;4981156;28;90525;-63
2024/02/08 16:24:17;;;;;;;;;;;;;;;;;;4979875;28;90358;-64
2024/02/08 16:26:56;;;;;;;;;;;;;;;;;;4979168;28;90298;-62
2024/02/08 16:29:33;;;;;;;;;;;;;;;;;;4980804;28;89711;-64
2024/02/08 16:32:06;;;;;;;;;;;;;;;;;;4981062;28;90224;-64
2024/02/08 16:34:34;;;;;;;;;;;;;;;;;;4978369;28;89661;-65
2024/02/08 16:37:03;;;;;;;;;;;;;;;;;;4983460;28;90285;-64
2024/02/08 16:39:42;;;;;;;;;;;;;;;;;;4982358;28;89695;-64
2024/02/08 16:42:17;;;;;;;;;;;;;;;;;;4982359;28;90753;-65
2024/02/08 16:44:50;;;;;;;;;;;;;;;;;;4983048;28;90209;-64
2024/02/08 16:47:28;;;;;;;;;;;;;;;;;;4974784;28;90148;-65
2024/02/08 16:49:55;;;;;;;;;;;;;;;;;;4980908;28;90675;-63
2024/02/08 16:52:22;;;;;;;;;;;;;;;;;;4980409;28;90164;-64
2024/02/08 16:54:59;;;;;;;;;;;;;;;;;;4979824;28;89600;-63
2024/02/08 16:57:30;;;;;;;;;;;;;;;;;;4975400;28;90336;-63
2024/02/08 16:59:58;;;;;;;;;;;;;;;;;;4979410;28;90482;-64
2024/02/08 17:05:16;;;;;;;;;;;;;;;;;;4982939;28;89418;-67
2024/02/08 17:10:22;;;;;;;;;;;;;;;;;;4981892;28;89670;-63
2024/02/08 17:12:59;;;;;;;;;;;;;;;;;;4979449;28;90405;-64
2024/02/08 17:15:28;;;;;;;;;;;;;;;;;;4977227;28;89758;-63
2024/02/08 17:18:01;;;;;;;;;;;;;;;;;;4983477;28;89483;-63
2024/02/08 17:20:37;;;;;;;;;;;;;;;;;;4980092;28;89958;-63
2024/02/08 17:23:16;;;;;;;;;;;;;;;;;;4973733;28;89550;-63
2024/02/08 17:25:42;;;;;;;;;;;;;;;;;;4979467;28;90249;-64
2024/02/08 17:28:14;;;;;;;;;;;;;;;;;;4975370;28;89316;-63
2024/02/08 17:31:02;;;;;;;;;;;;;;;;;;4985080;28;89823;-64
2024/02/08 17:33:30;;;;;;;;;;;;;;;;;;4984713;28;90474;-63
2024/02/08 17:35:58;;;;;;;;;;;;;;;;;;4985580;28;90263;-64
2024/02/08 17:38:28;;;;;;;;;;;;;;;;;;4985380;28;90550;-64
2024/02/08 17:40:54;;;;;;;;;;;;;;;;;;4986882;28;90346;-64
2024/02/08 17:43:23;;;;;;;;;;;;;;;;;;4979504;28;90680;-64
2024/02/08 17:45:54;;;;;;;;;;;;;;;;;;4985439;28;89216;-65
2024/02/08 17:48:21;;;;;;;;;;;;;;;;;;4985693;28;89522;-66
2024/02/08 17:50:58;;;;;;;;;;;;;;;;;;4985396;28;90041;-64
2024/02/08 17:53:25;;;;;;;;;;;;;;;;;;4983816;28;90264;-65
2024/02/08 17:55:51;;;;;;;;;;;;;;;;;;4986569;28;88944;-64
2024/02/08 17:58:17;;;;;;;;;;;;;;;;;;4985155;28;89588;-64
2024/02/08 18:00:48;;;;;;;;;;;;;;;;;;4985242;28;90298;-65
2024/02/08 18:03:25;;;;;;;;;;;;;;;;;;4988360;28;89511;-64
2024/02/08 18:05:51;;;;;;;;;;;;;;;;;;4975595;28;90318;-64
2024/02/08 18:08:19;;;;;;;;;;;;;;;;;;4983865;28;89307;-64
2024/02/08 18:10:46;;;;;;;;;;;;;;;;;;4985714;28;89666;-64
2024/02/08 18:13:13;;;;;;;;;;;;;;;;;;4985185;28;89917;-64
2024/02/08 18:15:40;;;;;;;;;;;;;;;;;;4985535;28;89067;-64
2024/02/08 18:18:07;;;;;;;;;;;;;;;;;;4981343;28;90423;-63
2024/02/08 18:20:33;;;;;;;;;;;;;;;;;;4984826;28;90514;-63
2024/02/08 18:23:05;;;;;;;;;;;;;;;;;;4985420;28;89107;-63
2024/02/08 18:25:31;;;;;;;;;;;;;;;;;;4966955;28;92977;-66
2024/02/08 18:28:00;;;;;;;;;;;;;;;;;;4975927;28;88961;-64
2024/02/08 18:30:28;;;;;;;;;;;;;;;;;;4979472;28;89793;-63
2024/02/08 18:32:54;;;;;;;;;;;;;;;;;;4980029;28;89665;-64
2024/02/08 18:35:23;;;;;;;;;;;;;;;;;;4981302;28;89209;-65
2024/02/08 18:37:49;;;;;;;;;;;;;;;;;;4985268;28;90544;-64
2024/02/08 18:40:51;;;;;;;;;;;;;;;;;;4978911;28;89296;-64
2024/02/08 18:43:06;;;;;;;;;;;;;;;;;;4982743;28;89225;-64
2024/02/08 18:45:36;;;;;;;;;;;;;;;;;;4981913;28;92379;-64
2024/02/08 18:48:03;;;;;;;;;;;;;;;;;;4983231;28;89398;-64
2024/02/08 18:50:32;;;;;;;;;;;;;;;;;;4983633;28;89650;-63
2024/02/08 18:53:00;;;;;;;;;;;;;;;;;;4984613;28;90649;-64
2024/02/08 18:55:44;;;;;;;;;;;;;;;;;;4984430;28;90173;-64
2024/02/08 18:58:13;;;;;;;;;;;;;;;;;;4985042;28;90500;-63
2024/02/08 19:00:39;;;;;;;;;;;;;;;;;;4984832;28;89656;-64
2024/02/08 19:03:07;;;;;;;;;;;;;;;;;;4987560;28;89551;-64
2024/02/08 19:05:40;;;;;;;;;;;;;;;;;;4984170;28;89748;-63
2024/02/08 19:08:06;;;;;;;;;;;;;;;;;;4986027;28;90169;-63
2024/02/08 19:10:32;;;;;;;;;;;;;;;;;;4982997;28;90053;-64